PWSweather.com
Personal Weather Stations
Station Observations
IPODRAVI2
Croatia, Trnovec BartoloveckiHR

CroatiaTrnovec BartoloveckiHR

Lat: 46.2947, Lon: 16.3989

Elevation: 535

Station Type: Davis Vantage Pro2 plus

http://www.pljusak.com/trnovec1/wx.html

High Low Average
Temperature 54.7°F12.6°F 41.6°F5.3°F 46.5°F8.1°F
Dew Point 53.2°F11.8°F 39.6°F4.2°F 43.0°F6.1°F
Winds 24.2 mph NNW38.9 mph NNW Calm Calm 5.8 mph 9.3 mph
Wind Gusts 36.0 mph57.9 mph -- 9.3 mph15.0 mph
Humidity 95% 71% 88%
Pressure 29.81 in1009.50 in 29.58 in1001.70 in -
Precipitation 2.58 in65.50 in - -
Hour Temp Dew Point Humidity Winds Wind Gusts Pressure Precip Precip Rate Daily Precip Total
01:55 AM 54.7°F12.6°C 53.0°F11.7°C 94% 12.6 mph ENE20.3 kmh ENE 17.0 mph27.4 kmh 29.58 in1001.7 mb 0.38 in9.7 mm 0.41 in/hr10.4 mm/hr 0.38 in9.7 mm
02:00 AM 54.6°F12.6°C 52.9°F11.6°C 94% 12.3 mph NE19.8 kmh NE 15.0 mph24.1 kmh 29.58 in1001.7 mb 0.01 in0.3 mm 0.01 in/hr0.3 mm/hr 0.39 in9.9 mm
02:05 AM 54.6°F12.6°C 53.2°F11.8°C 95% 11.8 mph NNE19.0 kmh NNE 17.0 mph27.4 kmh 29.61 in1002.7 mb 0.02 in0.5 mm 0.24 in/hr6.1 mm/hr 0.39 in9.9 mm
02:10 AM 54.1°F12.3°C 52.1°F11.2°C 93% 24.2 mph NNW38.9 kmh NNW 36.0 mph57.9 kmh 29.68 in1005.1 mb 0.07 in1.8 mm 0.84 in/hr21.3 mm/hr 0.47 in11.9 mm
02:15 AM 51.2°F10.7°C 48.1°F8.9°C 89% 24.2 mph N38.9 kmh N 35.0 mph56.3 kmh 29.71 in1006.1 mb 0.26 in6.6 mm 3.12 in/hr79.2 mm/hr 0.69 in17.5 mm
02:20 AM 49.7°F9.8°C 47.2°F8.4°C 91% 17.0 mph NNW27.4 kmh NNW 27.0 mph43.5 kmh 29.71 in1006.1 mb 0.17 in4.3 mm 2.04 in/hr51.8 mm/hr 0.83 in21.1 mm
02:25 AM 49.4°F9.7°C 47.4°F8.6°C 93% 22.2 mph N35.7 kmh N 29.0 mph46.7 kmh 29.71 in1006.1 mb 0.09 in2.3 mm 1.08 in/hr27.4 mm/hr 0.88 in22.4 mm
02:30 AM 49.2°F9.6°C 47.0°F8.3°C 92% 14.3 mph N23.0 kmh N 23.0 mph37.0 kmh 29.70 in1005.8 mb 0.06 in1.5 mm 0.72 in/hr18.3 mm/hr 0.94 in23.9 mm
02:35 AM 49.0°F9.4°C 47.1°F8.4°C 93% 14.7 mph NW23.7 kmh NW 19.0 mph30.6 kmh 29.70 in1005.8 mb 0.04 in1.0 mm 0.48 in/hr12.2 mm/hr 0.96 in24.4 mm
02:40 AM 48.8°F9.3°C 46.6°F8.1°C 92% 15.2 mph NNW24.5 kmh NNW 20.0 mph32.2 kmh 29.71 in1006.1 mb 0.02 in0.5 mm 0.24 in/hr6.1 mm/hr 0.99 in25.1 mm
02:45 AM 48.6°F9.2°C 46.4°F8.0°C 92% 12.8 mph N20.6 kmh N 19.0 mph30.6 kmh 29.70 in1005.8 mb 0.02 in0.5 mm 0.24 in/hr6.1 mm/hr 1.00 in25.4 mm
02:50 AM 48.4°F9.1°C 46.2°F7.9°C 92% 18.2 mph N29.3 kmh N 30.0 mph48.3 kmh 29.71 in1006.1 mb 0.01 in0.3 mm 0.12 in/hr3.0 mm/hr 1.01 in25.7 mm
02:55 AM 48.2°F9.0°C 46.0°F7.8°C 92% 16.8 mph N27.0 kmh N 24.0 mph38.6 kmh 29.70 in1005.8 mb 0.02 in0.5 mm 0.24 in/hr6.1 mm/hr 1.02 in25.9 mm
03:00 AM 48.0°F8.9°C 45.8°F7.7°C 92% 12.4 mph N20.0 kmh N 17.0 mph27.4 kmh 29.70 in1005.8 mb 0.02 in0.5 mm 0.02 in/hr0.5 mm/hr 1.03 in26.2 mm
03:05 AM 47.8°F8.8°C 45.6°F7.6°C 92% 16.2 mph NW26.1 kmh NW 24.0 mph38.6 kmh 29.70 in1005.8 mb 0.02 in0.5 mm 0.24 in/hr6.1 mm/hr 1.05 in26.7 mm
03:10 AM 47.5°F8.6°C 45.3°F7.4°C 92% 16.9 mph NNW27.2 kmh NNW 26.0 mph41.8 kmh 29.71 in1006.1 mb 0.03 in0.8 mm 0.36 in/hr9.1 mm/hr 1.07 in27.2 mm
03:15 AM 47.3°F8.5°C 45.1°F7.3°C 92% 14.8 mph NW23.8 kmh NW 19.0 mph30.6 kmh 29.71 in1006.1 mb 0.03 in0.8 mm 0.36 in/hr9.1 mm/hr 1.09 in27.7 mm
03:20 AM 47.2°F8.4°C 45.3°F7.4°C 93% 13.8 mph NNW22.2 kmh NNW 19.0 mph30.6 kmh 29.71 in1006.1 mb 0.03 in0.8 mm 0.36 in/hr9.1 mm/hr 1.12 in28.4 mm
03:25 AM 47.0°F8.3°C 44.8°F7.1°C 92% 18.9 mph NW30.4 kmh NW 24.0 mph38.6 kmh 29.71 in1006.1 mb 0.02 in0.5 mm 0.24 in/hr6.1 mm/hr 1.14 in29.0 mm
03:30 AM 46.8°F8.2°C 44.9°F7.2°C 93% 16.1 mph N25.9 kmh N 21.0 mph33.8 kmh 29.71 in1006.1 mb 0.03 in0.8 mm 0.36 in/hr9.1 mm/hr 1.17 in29.7 mm
03:35 AM 46.6°F8.1°C 44.4°F6.9°C 92% 15.8 mph N25.4 kmh N 23.0 mph37.0 kmh 29.72 in1006.4 mb 0.02 in0.5 mm 0.24 in/hr6.1 mm/hr 1.18 in30.0 mm
03:40 AM 46.4°F8.0°C 44.2°F6.8°C 92% 17.2 mph NW27.7 kmh NW 25.0 mph40.2 kmh 29.73 in1006.8 mb 0.02 in0.5 mm 0.24 in/hr6.1 mm/hr 1.21 in30.7 mm
03:45 AM 46.0°F7.8°C 43.6°F6.4°C 91% 13.5 mph NW21.7 kmh NW 24.0 mph38.6 kmh 29.73 in1006.8 mb 0.02 in0.5 mm 0.24 in/hr6.1 mm/hr 1.22 in31.0 mm
03:50 AM 45.6°F7.6°C 43.1°F6.2°C 91% 13.0 mph NNW20.9 kmh NNW 15.0 mph24.1 kmh 29.73 in1006.8 mb 0.02 in0.5 mm 0.24 in/hr6.1 mm/hr 1.24 in31.5 mm
03:55 AM 45.1°F7.3°C 42.7°F5.9°C 91% 17.6 mph NNW28.3 kmh NNW 30.0 mph48.3 kmh 29.73 in1006.8 mb 0.03 in0.8 mm 0.36 in/hr9.1 mm/hr 1.28 in32.5 mm
04:00 AM 44.8°F7.1°C 42.6°F5.9°C 92% 13.7 mph NW22.0 kmh NW 21.0 mph33.8 kmh 29.73 in1006.8 mb 0.04 in1.0 mm 0.04 in/hr1.0 mm/hr 1.31 in33.3 mm
04:05 AM 44.7°F7.1°C 42.5°F5.8°C 92% 14.7 mph NW23.7 kmh NW 18.0 mph29.0 kmh 29.73 in1006.8 mb 0.05 in1.3 mm 0.60 in/hr15.2 mm/hr 1.35 in34.3 mm
04:10 AM 44.5°F6.9°C 42.0°F5.6°C 91% 14.6 mph N23.5 kmh N 23.0 mph37.0 kmh 29.74 in1007.1 mb 0.05 in1.3 mm 0.60 in/hr15.2 mm/hr 1.39 in35.3 mm
04:15 AM 44.4°F6.9°C 42.2°F5.7°C 92% 11.3 mph N18.2 kmh N 17.0 mph27.4 kmh 29.74 in1007.1 mb 0.03 in0.8 mm 0.36 in/hr9.1 mm/hr 1.41 in35.8 mm
04:20 AM 44.2°F6.8°C 42.0°F5.6°C 92% 15.3 mph N24.6 kmh N 15.0 mph24.1 kmh 29.74 in1007.1 mb 0.04 in1.0 mm 0.48 in/hr12.2 mm/hr 1.44 in36.6 mm
04:25 AM 44.0°F6.7°C 41.8°F5.4°C 92% 14.1 mph NNE22.7 kmh NNE 20.0 mph32.2 kmh 29.73 in1006.8 mb 0.04 in1.0 mm 0.48 in/hr12.2 mm/hr 1.47 in37.3 mm
04:30 AM 43.9°F6.6°C 41.7°F5.4°C 92% 9.7 mph N15.6 kmh N 17.0 mph27.4 kmh 29.73 in1006.8 mb 0.04 in1.0 mm 0.48 in/hr12.2 mm/hr 1.50 in38.1 mm
04:35 AM 43.8°F6.6°C 41.9°F5.5°C 93% 10.9 mph NE17.5 kmh NE 15.0 mph24.1 kmh 29.73 in1006.8 mb 0.04 in1.0 mm 0.48 in/hr12.2 mm/hr 1.54 in39.1 mm
04:40 AM 43.7°F6.5°C 41.8°F5.4°C 93% 10.5 mph NNW16.9 kmh NNW 13.0 mph20.9 kmh 29.74 in1007.1 mb 0.03 in0.8 mm 0.36 in/hr9.1 mm/hr 1.56 in39.6 mm
04:45 AM 43.7°F6.5°C 41.8°F5.4°C 93% 11.6 mph N18.7 kmh N 15.0 mph24.1 kmh 29.75 in1007.5 mb 0.02 in0.5 mm 0.24 in/hr6.1 mm/hr 1.58 in40.1 mm
04:50 AM 43.7°F6.5°C 41.8°F5.4°C 93% 12.0 mph NE19.3 kmh NE 17.0 mph27.4 kmh 29.75 in1007.5 mb 0.02 in0.5 mm 0.24 in/hr6.1 mm/hr 1.59 in40.4 mm
04:55 AM 43.7°F6.5°C 41.8°F5.4°C 93% 10.4 mph N16.7 kmh N 14.0 mph22.5 kmh 29.75 in1007.5 mb 0.01 in0.3 mm 0.12 in/hr3.0 mm/hr 1.60 in40.6 mm
05:00 AM 43.7°F6.5°C 41.8°F5.4°C 93% 7.7 mph N12.4 kmh N 14.0 mph22.5 kmh 29.75 in1007.5 mb 0.02 in0.5 mm 0.02 in/hr0.5 mm/hr 1.61 in40.9 mm
05:05 AM 43.7°F6.5°C 41.8°F5.4°C 93% 8.3 mph NE13.4 kmh NE 12.0 mph19.3 kmh 29.75 in1007.5 mb 0.02 in0.5 mm 0.24 in/hr6.1 mm/hr 1.62 in41.1 mm
05:10 AM 43.6°F6.4°C 42.0°F5.6°C 94% 4.9 mph N7.9 kmh N 9.0 mph14.5 kmh 29.75 in1007.5 mb 0.02 in0.5 mm 0.24 in/hr6.1 mm/hr 1.64 in41.7 mm
05:15 AM 43.6°F6.4°C 42.0°F5.6°C 94% 7.5 mph NE12.1 kmh NE 11.0 mph17.7 kmh 29.75 in1007.5 mb 0.02 in0.5 mm 0.24 in/hr6.1 mm/hr 1.65 in41.9 mm
05:20 AM 43.5°F6.4°C 41.9°F5.5°C 94% 5.8 mph NE9.3 kmh NE 10.0 mph16.1 kmh 29.75 in1007.5 mb 0.02 in0.5 mm 0.24 in/hr6.1 mm/hr 1.67 in42.4 mm
05:25 AM 43.5°F6.4°C 41.9°F5.5°C 94% 4.0 mph NNE6.4 kmh NNE 6.0 mph9.7 kmh 29.76 in1007.8 mb 0.03 in0.8 mm 0.36 in/hr9.1 mm/hr 1.69 in42.9 mm
05:30 AM 43.4°F6.3°C 41.8°F5.4°C 94% 3.4 mph NE5.5 kmh NE 8.0 mph12.9 kmh 29.77 in1008.1 mb 0.03 in0.8 mm 0.36 in/hr9.1 mm/hr 1.72 in43.7 mm
05:35 AM 43.4°F6.3°C 42.1°F5.6°C 95% 4.6 mph NNE7.4 kmh NNE 12.0 mph19.3 kmh 29.76 in1007.8 mb 0.03 in0.8 mm 0.36 in/hr9.1 mm/hr 1.75 in44.5 mm
05:40 AM 43.5°F6.4°C 42.2°F5.7°C 95% 6.3 mph NE10.1 kmh NE 9.0 mph14.5 kmh 29.76 in1007.8 mb 0.03 in0.8 mm 0.36 in/hr9.1 mm/hr 1.77 in45.0 mm
05:45 AM 43.4°F6.3°C 42.1°F5.6°C 95% 4.5 mph NNE7.2 kmh NNE 9.0 mph14.5 kmh 29.76 in1007.8 mb 0.02 in0.5 mm 0.24 in/hr6.1 mm/hr 1.80 in45.7 mm
05:50 AM 43.5°F6.4°C 42.1°F5.6°C 95% 6.2 mph NNE10.0 kmh NNE 8.0 mph12.9 kmh 29.76 in1007.8 mb 0.02 in0.5 mm 0.24 in/hr6.1 mm/hr 1.81 in46.0 mm
05:55 AM 43.4°F6.3°C 42.1°F5.6°C 95% 5.3 mph NNW8.5 kmh NNW 8.0 mph12.9 kmh 29.77 in1008.1 mb 0.02 in0.5 mm 0.24 in/hr6.1 mm/hr 1.83 in46.5 mm
06:00 AM 43.4°F6.3°C 42.1°F5.6°C 95% 4.5 mph NW7.2 kmh NW 8.0 mph12.9 kmh 29.77 in1008.1 mb 0.02 in0.5 mm 0.02 in/hr0.5 mm/hr 1.84 in46.7 mm
06:05 AM 43.5°F6.4°C 42.2°F5.7°C 95% 2.1 mph NW3.4 kmh NW 5.0 mph8.0 kmh 29.78 in1008.5 mb 0.02 in0.5 mm 0.24 in/hr6.1 mm/hr 1.87 in47.5 mm
06:10 AM 43.6°F6.4°C 42.3°F5.7°C 95% 5.2 mph NW8.4 kmh NW 10.0 mph16.1 kmh 29.77 in1008.1 mb 0.03 in0.8 mm 0.36 in/hr9.1 mm/hr 1.90 in48.3 mm
06:15 AM 43.6°F6.4°C 42.2°F5.7°C 95% 7.3 mph N11.7 kmh N 12.0 mph19.3 kmh 29.76 in1007.8 mb 0.02 in0.5 mm 0.24 in/hr6.1 mm/hr 1.92 in48.8 mm
06:20 AM 43.4°F6.3°C 42.1°F5.6°C 95% 6.0 mph NW9.7 kmh NW 10.0 mph16.1 kmh 29.77 in1008.1 mb 0.02 in0.5 mm 0.24 in/hr6.1 mm/hr 1.94 in49.3 mm
06:25 AM 43.4°F6.3°C 42.1°F5.6°C 95% 5.2 mph N8.4 kmh N 6.0 mph9.7 kmh 29.77 in1008.1 mb 0.02 in0.5 mm 0.24 in/hr6.1 mm/hr 1.95 in49.5 mm
06:30 AM 43.3°F6.3°C 42.0°F5.6°C 95% 4.5 mph NW7.2 kmh NW 10.0 mph16.1 kmh 29.78 in1008.5 mb 0.02 in0.5 mm 0.24 in/hr6.1 mm/hr 1.96 in49.8 mm
06:35 AM 43.2°F6.2°C 41.8°F5.4°C 95% 6.0 mph NW9.7 kmh NW 10.0 mph16.1 kmh 29.78 in1008.5 mb 0.02 in0.5 mm 0.24 in/hr6.1 mm/hr 1.98 in50.3 mm
06:40 AM 43.0°F6.1°C 41.4°F5.2°C 94% 9.9 mph N15.9 kmh N 12.0 mph19.3 kmh 29.78 in1008.5 mb 0.02 in0.5 mm 0.24 in/hr6.1 mm/hr 2.00 in50.8 mm
06:45 AM 42.9°F6.1°C 41.3°F5.2°C 94% 10.3 mph NW16.6 kmh NW 13.0 mph20.9 kmh 29.79 in1008.8 mb 0.02 in0.5 mm 0.24 in/hr6.1 mm/hr 2.02 in51.3 mm
06:50 AM 42.8°F6.0°C 40.9°F4.9°C 93% 6.9 mph NW11.1 kmh NW 12.0 mph19.3 kmh 29.79 in1008.8 mb 0.02 in0.5 mm 0.24 in/hr6.1 mm/hr 2.03 in51.6 mm
06:55 AM 42.6°F5.9°C 40.7°F4.8°C 93% 9.2 mph NNW14.8 kmh NNW 13.0 mph20.9 kmh 29.79 in1008.8 mb 0.02 in0.5 mm 0.24 in/hr6.1 mm/hr 2.05 in52.1 mm
07:00 AM 42.5°F5.8°C 40.6°F4.8°C 93% 14.0 mph NW22.5 kmh NW 18.0 mph29.0 kmh 29.79 in1008.8 mb 0.02 in0.5 mm 0.02 in/hr0.5 mm/hr 2.07 in52.6 mm
07:05 AM 42.4°F5.8°C 40.5°F4.7°C 93% 10.7 mph NW17.2 kmh NW 18.0 mph29.0 kmh 29.79 in1008.8 mb 0.02 in0.5 mm 0.24 in/hr6.1 mm/hr 2.09 in53.1 mm
07:10 AM 42.2°F5.7°C 40.1°F4.5°C 92% 13.1 mph NW21.1 kmh NW 21.0 mph33.8 kmh 29.79 in1008.8 mb 0.02 in0.5 mm 0.24 in/hr6.1 mm/hr 2.09 in53.1 mm
07:15 AM 42.1°F5.6°C 39.9°F4.4°C 92% 9.8 mph N15.8 kmh N 17.0 mph27.4 kmh 29.78 in1008.5 mb 0.02 in0.5 mm 0.24 in/hr6.1 mm/hr 2.11 in53.6 mm
07:20 AM 42.0°F5.6°C 40.1°F4.5°C 93% 6.0 mph N9.7 kmh N 10.0 mph16.1 kmh 29.79 in1008.8 mb 0.01 in0.3 mm 0.12 in/hr3.0 mm/hr 2.12 in53.8 mm
07:25 AM 42.0°F5.6°C 40.1°F4.5°C 93% 2.6 mph WNW4.2 kmh WNW 7.0 mph11.3 kmh 29.81 in1009.5 mb 0.01 in0.3 mm 0.12 in/hr3.0 mm/hr 2.13 in54.1 mm
07:30 AM 41.9°F5.5°C 40.0°F4.4°C 93% 2.1 mph NW3.4 kmh NW 5.0 mph8.0 kmh 29.81 in1009.5 mb 0.01 in0.3 mm 0.12 in/hr3.0 mm/hr 2.13 in54.1 mm
07:35 AM 41.7°F5.4°C 39.8°F4.3°C 93% 1.7 mph WNW2.7 kmh WNW 4.0 mph6.4 kmh 29.81 in1009.5 mb 0.01 in0.3 mm 0.12 in/hr3.0 mm/hr 2.14 in54.4 mm
07:40 AM 41.6°F5.3°C 40.0°F4.4°C 94% 1.8 mph WNW2.9 kmh WNW 4.0 mph6.4 kmh 29.80 in1009.1 mb 0.00 in0.0 mm 0.00 in/hr0.0 mm/hr 2.14 in54.4 mm
07:45 AM 41.6°F5.3°C 40.0°F4.4°C 94% 2.9 mph WNW4.7 kmh WNW 4.0 mph6.4 kmh 29.80 in1009.1 mb 0.01 in0.3 mm 0.12 in/hr3.0 mm/hr 2.15 in54.6 mm
07:50 AM 41.7°F5.4°C 40.1°F4.5°C 94% 0.7 mph WNW1.1 kmh WNW 2.0 mph3.2 kmh 29.80 in1009.1 mb 0.00 in0.0 mm 0.00 in/hr0.0 mm/hr 2.15 in54.6 mm
07:55 AM 41.7°F5.4°C 40.1°F4.5°C 94% 0.6 mph WNW1.0 kmh WNW 4.0 mph6.4 kmh 29.79 in1008.8 mb 0.01 in0.3 mm 0.12 in/hr3.0 mm/hr 2.16 in54.9 mm
08:00 AM 41.7°F5.4°C 40.1°F4.5°C 94% 0.8 mph NW1.3 kmh NW 3.0 mph4.8 kmh 29.78 in1008.5 mb 0.00 in0.0 mm 0.00 in/hr0.0 mm/hr 2.16 in54.9 mm
08:05 AM 41.7°F5.4°C 40.1°F4.5°C 94% 0.4 mph NW0.6 kmh NW 1.0 mph1.6 kmh 29.79 in1008.8 mb 0.00 in0.0 mm 0.00 in/hr0.0 mm/hr 2.16 in54.9 mm
08:10 AM 41.7°F5.4°C 40.1°F4.5°C 94% 2.0 mph NW3.2 kmh NW 4.0 mph6.4 kmh 29.79 in1008.8 mb 0.00 in0.0 mm 0.00 in/hr0.0 mm/hr 2.16 in54.9 mm
08:15 AM 41.7°F5.4°C 40.1°F4.5°C 94% 1.3 mph NW2.1 kmh NW 2.0 mph3.2 kmh 29.79 in1008.8 mb 0.00 in0.0 mm 0.00 in/hr0.0 mm/hr 2.16 in54.9 mm
08:20 AM 41.8°F5.4°C 40.5°F4.7°C 95% 2.0 mph NW3.2 kmh NW 4.0 mph6.4 kmh 29.79 in1008.8 mb 0.00 in0.0 mm 0.00 in/hr0.0 mm/hr 2.16 in54.9 mm
08:25 AM 41.9°F5.5°C 40.3°F4.6°C 94% 0.2 mph NW0.3 kmh NW 2.0 mph3.2 kmh 29.78 in1008.5 mb 0.00 in0.0 mm 0.00 in/hr0.0 mm/hr 2.16 in54.9 mm
08:30 AM 42.0°F5.6°C 40.7°F4.8°C 95% 0.1 mph NW0.2 kmh NW -- 29.78 in1008.5 mb 0.00 in0.0 mm 0.00 in/hr0.0 mm/hr 2.16 in54.9 mm
08:35 AM 42.1°F5.6°C 40.8°F4.9°C 95% Calm Calm -- 29.77 in1008.1 mb 0.01 in0.3 mm 0.12 in/hr3.0 mm/hr 2.17 in55.1 mm
08:40 AM 42.3°F5.7°C 41.0°F5.0°C 95% 0.2 mph NW0.3 kmh NW 2.0 mph3.2 kmh 29.77 in1008.1 mb 0.00 in0.0 mm 0.00 in/hr0.0 mm/hr 2.17 in55.1 mm
08:45 AM 42.5°F5.8°C 41.2°F5.1°C 95% 2.9 mph WSW4.7 kmh WSW 5.0 mph8.0 kmh 29.78 in1008.5 mb 0.00 in0.0 mm 0.00 in/hr0.0 mm/hr 2.17 in55.1 mm
08:50 AM 42.6°F5.9°C 41.3°F5.2°C 95% 5.1 mph WSW8.2 kmh WSW 6.0 mph9.7 kmh 29.78 in1008.5 mb 0.00 in0.0 mm 0.00 in/hr0.0 mm/hr 2.17 in55.1 mm
08:55 AM 42.6°F5.9°C 41.0°F5.0°C 94% 5.6 mph WSW9.0 kmh WSW 8.0 mph12.9 kmh 29.77 in1008.1 mb 0.00 in0.0 mm 0.00 in/hr0.0 mm/hr 2.17 in55.1 mm
09:00 AM 42.6°F5.9°C 41.0°F5.0°C 94% 5.9 mph WSW9.5 kmh WSW 9.0 mph14.5 kmh 29.77 in1008.1 mb 0.00 in0.0 mm 0.00 in/hr0.0 mm/hr 2.17 in55.1 mm
09:05 AM 42.6°F5.9°C 41.0°F5.0°C 94% 7.4 mph SW11.9 kmh SW 12.0 mph19.3 kmh 29.77 in1008.1 mb 0.00 in0.0 mm 0.00 in/hr0.0 mm/hr 2.17 in55.1 mm
09:10 AM 42.6°F5.9°C 41.0°F5.0°C 94% 7.1 mph WSW11.4 kmh WSW 12.0 mph19.3 kmh 29.77 in1008.1 mb 0.00 in0.0 mm 0.00 in/hr0.0 mm/hr 2.17 in55.1 mm
09:15 AM 42.7°F5.9°C 41.1°F5.1°C 94% 6.4 mph WSW10.3 kmh WSW 11.0 mph17.7 kmh 29.77 in1008.1 mb 0.00 in0.0 mm 0.00 in/hr0.0 mm/hr 2.17 in55.1 mm
09:20 AM 42.8°F6.0°C 40.9°F4.9°C 93% 6.4 mph SW10.3 kmh SW 9.0 mph14.5 kmh 29.77 in1008.1 mb 0.00 in0.0 mm 0.00 in/hr0.0 mm/hr 2.17 in55.1 mm
09:25 AM 43.0°F6.1°C 41.1°F5.1°C 93% 8.4 mph WSW13.5 kmh WSW 11.0 mph17.7 kmh 29.77 in1008.1 mb 0.00 in0.0 mm 0.00 in/hr0.0 mm/hr 2.17 in55.1 mm
09:30 AM 43.2°F6.2°C 41.3°F5.2°C 93% 6.0 mph WSW9.7 kmh WSW 12.0 mph19.3 kmh 29.78 in1008.5 mb 0.00 in0.0 mm 0.00 in/hr0.0 mm/hr 2.17 in55.1 mm
09:35 AM 43.4°F6.3°C 41.5°F5.3°C 93% 7.1 mph SW11.4 kmh SW 13.0 mph20.9 kmh 29.77 in1008.1 mb 0.00 in0.0 mm 0.00 in/hr0.0 mm/hr 2.17 in55.1 mm
09:40 AM 43.5°F6.4°C 41.6°F5.3°C 93% 5.6 mph SW9.0 kmh SW 11.0 mph17.7 kmh 29.76 in1007.8 mb 0.00 in0.0 mm 0.00 in/hr0.0 mm/hr 2.17 in55.1 mm
09:45 AM 43.5°F6.4°C 41.3°F5.2°C 92% 5.1 mph SW8.2 kmh SW 8.0 mph12.9 kmh 29.76 in1007.8 mb 0.00 in0.0 mm 0.00 in/hr0.0 mm/hr 2.17 in55.1 mm
09:50 AM 43.6°F6.4°C 41.7°F5.4°C 93% 5.3 mph SSW8.5 kmh SSW 9.0 mph14.5 kmh 29.77 in1008.1 mb 0.00 in0.0 mm 0.00 in/hr0.0 mm/hr 2.17 in55.1 mm
09:55 AM 43.8°F6.6°C 41.6°F5.3°C 92% 2.7 mph WSW4.3 kmh WSW 7.0 mph11.3 kmh 29.77 in1008.1 mb 0.00 in0.0 mm 0.00 in/hr0.0 mm/hr 2.17 in55.1 mm
10:00 AM 43.9°F6.6°C 41.8°F5.4°C 92% 2.6 mph WSW4.2 kmh WSW 3.0 mph4.8 kmh 29.77 in1008.1 mb 0.00 in0.0 mm 0.00 in/hr0.0 mm/hr 2.17 in55.1 mm
10:05 AM 44.1°F6.7°C 41.9°F5.5°C 92% 4.6 mph WNW7.4 kmh WNW 8.0 mph12.9 kmh 29.77 in1008.1 mb 0.00 in0.0 mm 0.00 in/hr0.0 mm/hr 2.17 in55.1 mm
10:10 AM 44.1°F6.7°C 42.2°F5.7°C 93% 4.5 mph WNW7.2 kmh WNW 7.0 mph11.3 kmh 29.78 in1008.5 mb 0.00 in0.0 mm 0.00 in/hr0.0 mm/hr 2.17 in55.1 mm
10:15 AM 44.1°F6.7°C 42.2°F5.7°C 93% 4.3 mph NW6.9 kmh NW 9.0 mph14.5 kmh 29.79 in1008.8 mb 0.00 in0.0 mm 0.00 in/hr0.0 mm/hr 2.17 in55.1 mm
10:20 AM 44.1°F6.7°C 42.2°F5.7°C 93% 3.7 mph WSW6.0 kmh WSW 7.0 mph11.3 kmh 29.78 in1008.5 mb 0.00 in0.0 mm 0.00 in/hr0.0 mm/hr 2.17 in55.1 mm
10:25 AM 44.0°F6.7°C 41.9°F5.5°C 92% 6.5 mph WNW10.5 kmh WNW 11.0 mph17.7 kmh 29.78 in1008.5 mb 0.00 in0.0 mm 0.00 in/hr0.0 mm/hr 2.17 in55.1 mm
10:30 AM 44.0°F6.7°C 41.8°F5.4°C 92% 4.0 mph WNW6.4 kmh WNW 5.0 mph8.0 kmh 29.78 in1008.5 mb 0.01 in0.3 mm 0.12 in/hr3.0 mm/hr 2.17 in55.1 mm
10:35 AM 44.0°F6.7°C 41.8°F5.4°C 92% 4.8 mph W7.7 kmh W 8.0 mph12.9 kmh 29.78 in1008.5 mb 0.00 in0.0 mm 0.00 in/hr0.0 mm/hr 2.17 in55.1 mm
10:40 AM 44.1°F6.7°C 41.9°F5.5°C 92% 3.7 mph W6.0 kmh W 7.0 mph11.3 kmh 29.78 in1008.5 mb 0.00 in0.0 mm 0.00 in/hr0.0 mm/hr 2.17 in55.1 mm
10:45 AM 44.1°F6.7°C 41.9°F5.5°C 92% 1.1 mph NW1.8 kmh NW 1.0 mph1.6 kmh 29.78 in1008.5 mb 0.00 in0.0 mm 0.00 in/hr0.0 mm/hr 2.17 in55.1 mm
10:50 AM 44.2°F6.8°C 42.3°F5.7°C 93% 1.3 mph NW2.1 kmh NW 5.0 mph8.0 kmh 29.78 in1008.5 mb 0.00 in0.0 mm 0.00 in/hr0.0 mm/hr 2.17 in55.1 mm
10:55 AM 44.3°F6.8°C 42.1°F5.6°C 92% 3.4 mph NW5.5 kmh NW 5.0 mph8.0 kmh 29.77 in1008.1 mb 0.00 in0.0 mm 0.00 in/hr0.0 mm/hr 2.17 in55.1 mm
11:00 AM 44.5°F6.9°C 42.3°F5.7°C 92% 2.6 mph NW4.2 kmh NW 7.0 mph11.3 kmh 29.77 in1008.1 mb 0.01 in0.3 mm 0.01 in/hr0.3 mm/hr 2.18 in55.4 mm
11:05 AM 44.8°F7.1°C 42.6°F5.9°C 92% 3.2 mph NW5.1 kmh NW 6.0 mph9.7 kmh 29.77 in1008.1 mb 0.00 in0.0 mm 0.00 in/hr0.0 mm/hr 2.18 in55.4 mm
11:10 AM 45.0°F7.2°C 42.8°F6.0°C 92% 2.7 mph NW4.3 kmh NW 5.0 mph8.0 kmh 29.77 in1008.1 mb 0.00 in0.0 mm 0.00 in/hr0.0 mm/hr 2.18 in55.4 mm
11:15 AM 45.0°F7.2°C 42.6°F5.9°C 91% 3.7 mph WNW6.0 kmh WNW 5.0 mph8.0 kmh 29.77 in1008.1 mb 0.00 in0.0 mm 0.00 in/hr0.0 mm/hr 2.18 in55.4 mm
11:20 AM 45.1°F7.3°C 42.6°F5.9°C 91% 2.3 mph NW3.7 kmh NW 3.0 mph4.8 kmh 29.76 in1007.8 mb 0.00 in0.0 mm 0.00 in/hr0.0 mm/hr 2.18 in55.4 mm
11:25 AM 45.2°F7.3°C 43.0°F6.1°C 92% 0.3 mph NW0.5 kmh NW 2.0 mph3.2 kmh 29.75 in1007.5 mb 0.00 in0.0 mm 0.00 in/hr0.0 mm/hr 2.18 in55.4 mm
11:30 AM 45.5°F7.5°C 43.3°F6.3°C 92% 0.2 mph NW0.3 kmh NW 1.0 mph1.6 kmh 29.74 in1007.1 mb 0.00 in0.0 mm 0.00 in/hr0.0 mm/hr 2.18 in55.4 mm
11:35 AM 45.6°F7.6°C 43.4°F6.3°C 92% 0.5 mph NW0.8 kmh NW 3.0 mph4.8 kmh 29.74 in1007.1 mb 0.00 in0.0 mm 0.00 in/hr0.0 mm/hr 2.18 in55.4 mm
11:40 AM 45.8°F7.7°C 43.7°F6.5°C 92% 0.6 mph NW1.0 kmh NW 2.0 mph3.2 kmh 29.74 in1007.1 mb 0.00 in0.0 mm 0.00 in/hr0.0 mm/hr 2.18 in55.4 mm
11:45 AM 46.0°F7.8°C 43.5°F6.4°C 91% 2.2 mph NW3.5 kmh NW 4.0 mph6.4 kmh 29.74 in1007.1 mb 0.00 in0.0 mm 0.00 in/hr0.0 mm/hr 2.18 in55.4 mm
11:50 AM 46.0°F7.8°C 43.3°F6.3°C 90% 2.8 mph NW4.5 kmh NW 5.0 mph8.0 kmh 29.74 in1007.1 mb 0.00 in0.0 mm 0.00 in/hr0.0 mm/hr 2.18 in55.4 mm
11:55 AM 46.2°F7.9°C 43.4°F6.3°C 90% 0.8 mph NW1.3 kmh NW 3.0 mph4.8 kmh 29.74 in1007.1 mb 0.00 in0.0 mm 0.00 in/hr0.0 mm/hr 2.18 in55.4 mm
12:00 PM 46.3°F7.9°C 43.2°F6.2°C 89% 5.1 mph NW8.2 kmh NW 7.0 mph11.3 kmh 29.73 in1006.8 mb 0.00 in0.0 mm 0.00 in/hr0.0 mm/hr 2.18 in55.4 mm
12:05 PM 46.6°F8.1°C 43.5°F6.4°C 89% 5.0 mph NW8.0 kmh NW 11.0 mph17.7 kmh 29.73 in1006.8 mb 0.00 in0.0 mm 0.00 in/hr0.0 mm/hr 2.18 in55.4 mm
12:10 PM 46.9°F8.3°C 43.8°F6.6°C 89% 6.4 mph WNW10.3 kmh WNW 8.0 mph12.9 kmh 29.73 in1006.8 mb 0.00 in0.0 mm 0.00 in/hr0.0 mm/hr 2.18 in55.4 mm
12:15 PM 47.2°F8.4°C 44.1°F6.7°C 89% 3.8 mph WNW6.1 kmh WNW 8.0 mph12.9 kmh 29.73 in1006.8 mb 0.00 in0.0 mm 0.00 in/hr0.0 mm/hr 2.18 in55.4 mm
12:20 PM 47.3°F8.5°C 44.2°F6.8°C 89% 6.0 mph W9.7 kmh W 9.0 mph14.5 kmh 29.73 in1006.8 mb 0.00 in0.0 mm 0.00 in/hr0.0 mm/hr 2.18 in55.4 mm
12:25 PM 47.3°F8.5°C 44.2°F6.8°C 89% 3.4 mph W5.5 kmh W 6.0 mph9.7 kmh 29.73 in1006.8 mb 0.00 in0.0 mm 0.00 in/hr0.0 mm/hr 2.18 in55.4 mm
12:30 PM 47.4°F8.6°C 44.3°F6.8°C 89% 5.3 mph WNW8.5 kmh WNW 7.0 mph11.3 kmh 29.73 in1006.8 mb 0.00 in0.0 mm 0.00 in/hr0.0 mm/hr 2.18 in55.4 mm
12:35 PM 47.4°F8.6°C 44.3°F6.8°C 89% 3.0 mph WNW4.8 kmh WNW 4.0 mph6.4 kmh 29.73 in1006.8 mb 0.00 in0.0 mm 0.00 in/hr0.0 mm/hr 2.18 in55.4 mm
12:40 PM 47.5°F8.6°C 44.1°F6.7°C 88% 5.1 mph W8.2 kmh W 8.0 mph12.9 kmh 29.73 in1006.8 mb 0.00 in0.0 mm 0.00 in/hr0.0 mm/hr 2.18 in55.4 mm
12:45 PM 47.6°F8.7°C 43.9°F6.6°C 87% 5.3 mph NW8.5 kmh NW 8.0 mph12.9 kmh 29.73 in1006.8 mb 0.00 in0.0 mm 0.00 in/hr0.0 mm/hr 2.18 in55.4 mm
12:50 PM 47.5°F8.6°C 44.2°F6.8°C 88% 4.2 mph WSW6.8 kmh WSW 7.0 mph11.3 kmh 29.73 in1006.8 mb 0.00 in0.0 mm 0.00 in/hr0.0 mm/hr 2.18 in55.4 mm
12:55 PM 47.6°F8.7°C 44.2°F6.8°C 88% 5.4 mph NW8.7 kmh NW 9.0 mph14.5 kmh 29.73 in1006.8 mb 0.00 in0.0 mm 0.00 in/hr0.0 mm/hr 2.18 in55.4 mm
01:00 PM 47.9°F8.8°C 44.8°F7.1°C 89% 4.8 mph W7.7 kmh W 11.0 mph17.7 kmh 29.73 in1006.8 mb 0.00 in0.0 mm 0.00 in/hr0.0 mm/hr 2.18 in55.4 mm
01:05 PM 48.1°F8.9°C 44.8°F7.1°C 88% 6.0 mph W9.7 kmh W 8.0 mph12.9 kmh 29.73 in1006.8 mb 0.00 in0.0 mm 0.00 in/hr0.0 mm/hr 2.18 in55.4 mm
01:10 PM 48.9°F9.4°C 45.5°F7.5°C 88% 6.7 mph W10.8 kmh W 11.0 mph17.7 kmh 29.73 in1006.8 mb 0.00 in0.0 mm 0.00 in/hr0.0 mm/hr 2.18 in55.4 mm
01:15 PM 49.8°F9.9°C 45.5°F7.5°C 85% 4.3 mph W6.9 kmh W 8.0 mph12.9 kmh 29.73 in1006.8 mb 0.00 in0.0 mm 0.00 in/hr0.0 mm/hr 2.18 in55.4 mm
01:20 PM 50.8°F10.4°C 46.2°F7.9°C 84% 2.7 mph NW4.3 kmh NW 8.0 mph12.9 kmh 29.73 in1006.8 mb 0.00 in0.0 mm 0.00 in/hr0.0 mm/hr 2.18 in55.4 mm
01:25 PM 50.9°F10.5°C 45.2°F7.3°C 81% 5.0 mph WNW8.0 kmh WNW 11.0 mph17.7 kmh 29.72 in1006.4 mb 0.00 in0.0 mm 0.00 in/hr0.0 mm/hr 2.18 in55.4 mm
01:30 PM 50.4°F10.2°C 44.8°F7.1°C 81% 7.2 mph W11.6 kmh W 11.0 mph17.7 kmh 29.72 in1006.4 mb 0.00 in0.0 mm 0.00 in/hr0.0 mm/hr 2.18 in55.4 mm
01:35 PM 50.7°F10.4°C 45.1°F7.3°C 81% 4.5 mph WNW7.2 kmh WNW 6.0 mph9.7 kmh 29.73 in1006.8 mb 0.00 in0.0 mm 0.00 in/hr0.0 mm/hr 2.18 in55.4 mm
01:40 PM 50.8°F10.4°C 44.9°F7.2°C 80% 3.6 mph NW5.8 kmh NW 8.0 mph12.9 kmh 29.72 in1006.4 mb 0.00 in0.0 mm 0.00 in/hr0.0 mm/hr 2.18 in55.4 mm
01:45 PM 51.1°F10.6°C 44.5°F6.9°C 78% 3.0 mph WNW4.8 kmh WNW 8.0 mph12.9 kmh 29.72 in1006.4 mb 0.00 in0.0 mm 0.00 in/hr0.0 mm/hr 2.18 in55.4 mm
01:50 PM 51.5°F10.8°C 44.5°F6.9°C 77% 2.4 mph WSW3.9 kmh WSW 8.0 mph12.9 kmh 29.73 in1006.8 mb 0.00 in0.0 mm 0.00 in/hr0.0 mm/hr 2.18 in55.4 mm
01:55 PM 51.7°F10.9°C 45.0°F7.2°C 78% 3.1 mph W5.0 kmh W 6.0 mph9.7 kmh 29.73 in1006.8 mb 0.00 in0.0 mm 0.00 in/hr0.0 mm/hr 2.18 in55.4 mm
02:00 PM 52.0°F11.1°C 45.7°F7.6°C 79% 2.2 mph NW3.5 kmh NW 4.0 mph6.4 kmh 29.73 in1006.8 mb 0.00 in0.0 mm 0.00 in/hr0.0 mm/hr 2.18 in55.4 mm
02:10 PM 51.7°F10.9°C 45.0°F7.2°C 78% 3.1 mph WNW5.0 kmh WNW 7.0 mph11.3 kmh 29.73 in1006.8 mb 0.00 in0.0 mm 0.00 in/hr0.0 mm/hr 2.18 in55.4 mm
02:15 PM 51.5°F10.8°C 44.2°F6.8°C 76% 2.4 mph WNW3.9 kmh WNW 3.0 mph4.8 kmh 29.73 in1006.8 mb 0.00 in0.0 mm 0.00 in/hr0.0 mm/hr 2.18 in55.4 mm
02:20 PM 51.5°F10.8°C 44.5°F6.9°C 77% 1.6 mph W2.6 kmh W 4.0 mph6.4 kmh 29.73 in1006.8 mb 0.00 in0.0 mm 0.00 in/hr0.0 mm/hr 2.18 in55.4 mm
02:25 PM 51.5°F10.8°C 44.2°F6.8°C 76% 2.2 mph WNW3.5 kmh WNW 4.0 mph6.4 kmh 29.74 in1007.1 mb 0.00 in0.0 mm 0.00 in/hr0.0 mm/hr 2.18 in55.4 mm
02:30 PM 51.5°F10.8°C 44.5°F6.9°C 77% 0.9 mph W1.4 kmh W 4.0 mph6.4 kmh 29.74 in1007.1 mb 0.00 in0.0 mm 0.00 in/hr0.0 mm/hr 2.18 in55.4 mm
02:35 PM 51.5°F10.8°C 44.5°F6.9°C 77% 3.6 mph SW5.8 kmh SW 6.0 mph9.7 kmh 29.74 in1007.1 mb 0.00 in0.0 mm 0.00 in/hr0.0 mm/hr 2.18 in55.4 mm
02:41 PM 51.0°F10.6°C 44.7°F7.1°C 79% 5.3 mph SSW8.5 kmh SSW 6.0 mph9.7 kmh 29.74 in1007.1 mb 0.00 in0.0 mm 0.00 in/hr0.0 mm/hr 2.18 in55.4 mm
02:45 PM 50.3°F10.2°C 44.7°F7.1°C 81% 3.7 mph SW6.0 kmh SW 8.0 mph12.9 kmh 29.74 in1007.1 mb 0.00 in0.0 mm 0.00 in/hr0.0 mm/hr 2.18 in55.4 mm
02:50 PM 49.8°F9.9°C 44.5°F6.9°C 82% 4.0 mph SSW6.4 kmh SSW 7.0 mph11.3 kmh 29.74 in1007.1 mb 0.00 in0.0 mm 0.00 in/hr0.0 mm/hr 2.18 in55.4 mm
02:55 PM 49.5°F9.7°C 44.2°F6.8°C 82% 3.4 mph SW5.5 kmh SW 5.0 mph8.0 kmh 29.74 in1007.1 mb 0.00 in0.0 mm 0.00 in/hr0.0 mm/hr 2.18 in55.4 mm
03:00 PM 49.3°F9.6°C 44.4°F6.9°C 83% 3.2 mph WSW5.1 kmh WSW 6.0 mph9.7 kmh 29.74 in1007.1 mb 0.00 in0.0 mm 0.00 in/hr0.0 mm/hr 2.18 in55.4 mm
03:05 PM 49.2°F9.6°C 44.3°F6.8°C 83% 4.5 mph WSW7.2 kmh WSW 10.0 mph16.1 kmh 29.74 in1007.1 mb 0.00 in0.0 mm 0.00 in/hr0.0 mm/hr 2.18 in55.4 mm
03:10 PM 49.1°F9.5°C 44.4°F6.9°C 84% 2.8 mph WSW4.5 kmh WSW 4.0 mph6.4 kmh 29.74 in1007.1 mb 0.00 in0.0 mm 0.00 in/hr0.0 mm/hr 2.18 in55.4 mm
03:15 PM 49.0°F9.4°C 44.7°F7.1°C 85% 3.7 mph SW6.0 kmh SW 8.0 mph12.9 kmh 29.74 in1007.1 mb 0.00 in0.0 mm 0.00 in/hr0.0 mm/hr 2.18 in55.4 mm
03:20 PM 48.9°F9.4°C 44.6°F7.0°C 85% 2.2 mph SW3.5 kmh SW 5.0 mph8.0 kmh 29.74 in1007.1 mb 0.00 in0.0 mm 0.00 in/hr0.0 mm/hr 2.18 in55.4 mm
03:25 PM 48.9°F9.4°C 44.6°F7.0°C 85% 3.3 mph WSW5.3 kmh WSW 8.0 mph12.9 kmh 29.74 in1007.1 mb 0.00 in0.0 mm 0.00 in/hr0.0 mm/hr 2.18 in55.4 mm
03:30 PM 48.8°F9.3°C 44.5°F6.9°C 85% 4.9 mph WSW7.9 kmh WSW 6.0 mph9.7 kmh 29.74 in1007.1 mb 0.00 in0.0 mm 0.00 in/hr0.0 mm/hr 2.19 in55.6 mm
03:35 PM 48.8°F9.3°C 44.8°F7.1°C 86% 5.1 mph WSW8.2 kmh WSW 6.0 mph9.7 kmh 29.74 in1007.1 mb 0.01 in0.3 mm 0.12 in/hr3.0 mm/hr 2.19 in55.6 mm
03:40 PM 48.7°F9.3°C 44.7°F7.1°C 86% 4.1 mph W6.6 kmh W 6.0 mph9.7 kmh 29.74 in1007.1 mb 0.00 in0.0 mm 0.00 in/hr0.0 mm/hr 2.19 in55.6 mm
03:45 PM 48.7°F9.3°C 45.0°F7.2°C 87% 4.0 mph WSW6.4 kmh WSW 6.0 mph9.7 kmh 29.74 in1007.1 mb 0.00 in0.0 mm 0.00 in/hr0.0 mm/hr 2.19 in55.6 mm
03:50 PM 48.7°F9.3°C 45.3°F7.4°C 88% 4.5 mph WSW7.2 kmh WSW 8.0 mph12.9 kmh 29.74 in1007.1 mb 0.00 in0.0 mm 0.00 in/hr0.0 mm/hr 2.19 in55.6 mm
03:55 PM 48.8°F9.3°C 45.1°F7.3°C 87% 5.0 mph SW8.0 kmh SW 6.0 mph9.7 kmh 29.74 in1007.1 mb 0.00 in0.0 mm 0.00 in/hr0.0 mm/hr 2.19 in55.6 mm
04:00 PM 48.8°F9.3°C 45.1°F7.3°C 87% 4.4 mph SW7.1 kmh SW 8.0 mph12.9 kmh 29.74 in1007.1 mb 0.00 in0.0 mm 0.00 in/hr0.0 mm/hr 2.19 in55.6 mm
04:05 PM 48.7°F9.3°C 45.0°F7.2°C 87% 3.3 mph SW5.3 kmh SW 4.0 mph6.4 kmh 29.74 in1007.1 mb 0.00 in0.0 mm 0.00 in/hr0.0 mm/hr 2.19 in55.6 mm
04:10 PM 48.7°F9.3°C 45.0°F7.2°C 87% 3.0 mph WSW4.8 kmh WSW 6.0 mph9.7 kmh 29.74 in1007.1 mb 0.00 in0.0 mm 0.00 in/hr0.0 mm/hr 2.19 in55.6 mm
04:15 PM 48.7°F9.3°C 45.0°F7.2°C 87% 4.1 mph SW6.6 kmh SW 8.0 mph12.9 kmh 29.74 in1007.1 mb 0.00 in0.0 mm 0.00 in/hr0.0 mm/hr 2.19 in55.6 mm
04:20 PM 48.7°F9.3°C 45.0°F7.2°C 87% 2.0 mph SW3.2 kmh SW 3.0 mph4.8 kmh 29.74 in1007.1 mb 0.00 in0.0 mm 0.00 in/hr0.0 mm/hr 2.19 in55.6 mm
04:25 PM 48.6°F9.2°C 44.9°F7.2°C 87% 1.6 mph WSW2.6 kmh WSW 6.0 mph9.7 kmh 29.74 in1007.1 mb 0.00 in0.0 mm 0.00 in/hr0.0 mm/hr 2.19 in55.6 mm
04:30 PM 48.6°F9.2°C 44.9°F7.2°C 87% 3.1 mph WSW5.0 kmh WSW 4.0 mph6.4 kmh 29.74 in1007.1 mb 0.00 in0.0 mm 0.00 in/hr0.0 mm/hr 2.19 in55.6 mm
04:35 PM 48.6°F9.2°C 44.9°F7.2°C 87% 2.4 mph WSW3.9 kmh WSW 4.0 mph6.4 kmh 29.75 in1007.5 mb 0.00 in0.0 mm 0.00 in/hr0.0 mm/hr 2.19 in55.6 mm
04:40 PM 48.5°F9.2°C 45.1°F7.3°C 88% 0.9 mph WSW1.4 kmh WSW 4.0 mph6.4 kmh 29.75 in1007.5 mb 0.00 in0.0 mm 0.00 in/hr0.0 mm/hr 2.19 in55.6 mm
04:45 PM 48.5°F9.2°C 45.1°F7.3°C 88% 2.9 mph WSW4.7 kmh WSW 4.0 mph6.4 kmh 29.75 in1007.5 mb 0.00 in0.0 mm 0.00 in/hr0.0 mm/hr 2.19 in55.6 mm
04:50 PM 48.5°F9.2°C 45.1°F7.3°C 88% 1.4 mph W2.3 kmh W 6.0 mph9.7 kmh 29.75 in1007.5 mb 0.00 in0.0 mm 0.00 in/hr0.0 mm/hr 2.19 in55.6 mm
04:55 PM 48.5°F9.2°C 44.8°F7.1°C 87% 3.2 mph NW5.1 kmh NW 8.0 mph12.9 kmh 29.75 in1007.5 mb 0.00 in0.0 mm 0.00 in/hr0.0 mm/hr 2.19 in55.6 mm
05:00 PM 48.7°F9.3°C 44.7°F7.1°C 86% 2.3 mph NW3.7 kmh NW 4.0 mph6.4 kmh 29.75 in1007.5 mb 0.00 in0.0 mm 0.00 in/hr0.0 mm/hr 2.19 in55.6 mm
05:05 PM 48.9°F9.4°C 44.0°F6.7°C 83% 3.6 mph NNW5.8 kmh NNW 6.0 mph9.7 kmh 29.75 in1007.5 mb 0.00 in0.0 mm 0.00 in/hr0.0 mm/hr 2.19 in55.6 mm
05:10 PM 49.5°F9.7°C 43.6°F6.4°C 80% 4.4 mph N7.1 kmh N 8.0 mph12.9 kmh 29.76 in1007.8 mb 0.00 in0.0 mm 0.00 in/hr0.0 mm/hr 2.19 in55.6 mm
05:15 PM 49.9°F9.9°C 43.0°F6.1°C 77% 5.2 mph NNW8.4 kmh NNW 11.0 mph17.7 kmh 29.76 in1007.8 mb 0.00 in0.0 mm 0.00 in/hr0.0 mm/hr 2.19 in55.6 mm
05:20 PM 50.2°F10.1°C 42.6°F5.9°C 75% 7.4 mph NNW11.9 kmh NNW 12.0 mph19.3 kmh 29.76 in1007.8 mb 0.00 in0.0 mm 0.00 in/hr0.0 mm/hr 2.19 in55.6 mm
05:25 PM 50.3°F10.2°C 42.3°F5.7°C 74% 5.2 mph N8.4 kmh N 9.0 mph14.5 kmh 29.76 in1007.8 mb 0.00 in0.0 mm 0.00 in/hr0.0 mm/hr 2.19 in55.6 mm
05:30 PM 50.3°F10.2°C 41.9°F5.5°C 73% 4.9 mph NNW7.9 kmh NNW 9.0 mph14.5 kmh 29.76 in1007.8 mb 0.00 in0.0 mm 0.00 in/hr0.0 mm/hr 2.19 in55.6 mm
05:35 PM 50.2°F10.1°C 41.9°F5.5°C 73% 3.0 mph NNW4.8 kmh NNW 4.0 mph6.4 kmh 29.76 in1007.8 mb 0.00 in0.0 mm 0.00 in/hr0.0 mm/hr 2.19 in55.6 mm
05:40 PM 50.1°F10.1°C 41.8°F5.4°C 73% 3.8 mph NW6.1 kmh NW 8.0 mph12.9 kmh 29.76 in1007.8 mb 0.00 in0.0 mm 0.00 in/hr0.0 mm/hr 2.19 in55.6 mm
05:45 PM 49.9°F9.9°C 41.2°F5.1°C 72% 2.7 mph NW4.3 kmh NW 5.0 mph8.0 kmh 29.76 in1007.8 mb 0.00 in0.0 mm 0.00 in/hr0.0 mm/hr 2.19 in55.6 mm
05:50 PM 49.7°F9.8°C 41.0°F5.0°C 72% 3.1 mph NW5.0 kmh NW 5.0 mph8.0 kmh 29.77 in1008.1 mb 0.00 in0.0 mm 0.00 in/hr0.0 mm/hr 2.19 in55.6 mm
05:55 PM 49.6°F9.8°C 40.9°F4.9°C 72% 3.1 mph NW5.0 kmh NW 4.0 mph6.4 kmh 29.77 in1008.1 mb 0.00 in0.0 mm 0.00 in/hr0.0 mm/hr 2.19 in55.6 mm
06:00 PM 49.5°F9.7°C 41.2°F5.1°C 73% 2.7 mph NW4.3 kmh NW 5.0 mph8.0 kmh 29.77 in1008.1 mb 0.00 in0.0 mm 0.00 in/hr0.0 mm/hr 2.19 in55.6 mm
06:05 PM 49.4°F9.7°C 41.1°F5.1°C 73% 2.2 mph NW3.5 kmh NW 4.0 mph6.4 kmh 29.77 in1008.1 mb 0.00 in0.0 mm 0.00 in/hr0.0 mm/hr 2.19 in55.6 mm
06:10 PM 49.2°F9.6°C 40.9°F4.9°C 73% 1.8 mph NW2.9 kmh NW 2.0 mph3.2 kmh 29.77 in1008.1 mb 0.00 in0.0 mm 0.00 in/hr0.0 mm/hr 2.19 in55.6 mm
06:15 PM 49.1°F9.5°C 40.8°F4.9°C 73% 1.1 mph NW1.8 kmh NW 2.0 mph3.2 kmh 29.77 in1008.1 mb 0.00 in0.0 mm 0.00 in/hr0.0 mm/hr 2.19 in55.6 mm
06:20 PM 49.1°F9.5°C 41.1°F5.1°C 74% 0.7 mph NW1.1 kmh NW 3.0 mph4.8 kmh 29.77 in1008.1 mb 0.00 in0.0 mm 0.00 in/hr0.0 mm/hr 2.19 in55.6 mm
06:25 PM 49.0°F9.4°C 41.0°F5.0°C 74% 0.1 mph NW0.2 kmh NW 1.0 mph1.6 kmh 29.77 in1008.1 mb 0.00 in0.0 mm 0.00 in/hr0.0 mm/hr 2.19 in55.6 mm
06:30 PM 48.9°F9.4°C 40.9°F4.9°C 74% 0.6 mph NW1.0 kmh NW 1.0 mph1.6 kmh 29.77 in1008.1 mb 0.00 in0.0 mm 0.00 in/hr0.0 mm/hr 2.19 in55.6 mm
06:35 PM 48.8°F9.3°C 41.2°F5.1°C 75% 0.7 mph NW1.1 kmh NW 2.0 mph3.2 kmh 29.77 in1008.1 mb 0.00 in0.0 mm 0.00 in/hr0.0 mm/hr 2.19 in55.6 mm
06:40 PM 48.7°F9.3°C 40.8°F4.9°C 74% 1.5 mph NW2.4 kmh NW 3.0 mph4.8 kmh 29.77 in1008.1 mb 0.00 in0.0 mm 0.00 in/hr0.0 mm/hr 2.19 in55.6 mm
06:45 PM 48.8°F9.3°C 40.9°F4.9°C 74% 1.4 mph NW2.3 kmh NW 3.0 mph4.8 kmh 29.77 in1008.1 mb 0.00 in0.0 mm 0.00 in/hr0.0 mm/hr 2.19 in55.6 mm
06:50 PM 48.8°F9.3°C 40.5°F4.7°C 73% 1.5 mph NW2.4 kmh NW 4.0 mph6.4 kmh 29.77 in1008.1 mb 0.00 in0.0 mm 0.00 in/hr0.0 mm/hr 2.19 in55.6 mm
06:55 PM 48.8°F9.3°C 40.5°F4.7°C 73% 2.2 mph NNW3.5 kmh NNW 4.0 mph6.4 kmh 29.77 in1008.1 mb 0.00 in0.0 mm 0.00 in/hr0.0 mm/hr 2.19 in55.6 mm
07:00 PM 48.7°F9.3°C 40.1°F4.5°C 72% 2.1 mph NNW3.4 kmh NNW 4.0 mph6.4 kmh 29.77 in1008.1 mb 0.00 in0.0 mm 0.00 in/hr0.0 mm/hr 2.19 in55.6 mm
07:05 PM 48.7°F9.3°C 40.1°F4.5°C 72% 0.8 mph NNW1.3 kmh NNW 4.0 mph6.4 kmh 29.77 in1008.1 mb 0.00 in0.0 mm 0.00 in/hr0.0 mm/hr 2.19 in55.6 mm
07:10 PM 48.7°F9.3°C 40.1°F4.5°C 72% 1.8 mph NNW2.9 kmh NNW 3.0 mph4.8 kmh 29.77 in1008.1 mb 0.00 in0.0 mm 0.00 in/hr0.0 mm/hr 2.19 in55.6 mm
07:15 PM 48.7°F9.3°C 39.7°F4.3°C 71% 2.9 mph NNW4.7 kmh NNW 5.0 mph8.0 kmh 29.76 in1007.8 mb 0.00 in0.0 mm 0.00 in/hr0.0 mm/hr 2.19 in55.6 mm
07:20 PM 48.6°F9.2°C 39.6°F4.2°C 71% 1.9 mph NNW3.1 kmh NNW 2.0 mph3.2 kmh 29.76 in1007.8 mb 0.00 in0.0 mm 0.00 in/hr0.0 mm/hr 2.19 in55.6 mm
11:10 PM 46.2°F7.9°C 41.9°F5.5°C 85% Calm Calm -- 29.75 in1007.5 mb 0.00 in0.0 mm 0.00 in/hr0.0 mm/hr 2.58 in65.5 mm
11:15 PM 46.2°F7.9°C 41.9°F5.5°C 85% 1.6 mph NNW2.6 kmh NNW 2.0 mph3.2 kmh 29.75 in1007.5 mb 0.00 in0.0 mm 0.00 in/hr0.0 mm/hr 2.58 in65.5 mm